createdAt,value
2018-03-28T00:00:38.822Z,0.00
2018-03-28T00:01:38.818Z,0.00
2018-03-28T00:02:38.814Z,0.00
2018-03-28T00:03:38.859Z,0.00
2018-03-28T00:04:38.805Z,0.00
2018-03-28T00:05:38.802Z,0.00
2018-03-28T00:06:38.816Z,0.00
2018-03-28T00:07:38.795Z,0.00
2018-03-28T00:08:38.804Z,0.00
2018-03-28T00:09:38.787Z,0.00
2018-03-28T00:10:38.781Z,0.00
2018-03-28T00:11:38.778Z,0.00
2018-03-28T00:12:38.771Z,0.00
2018-03-28T00:13:38.767Z,0.00
2018-03-28T00:14:38.763Z,0.00
2018-03-28T00:15:38.767Z,0.00
2018-03-28T00:16:38.755Z,0.00
2018-03-28T00:17:38.750Z,0.00
2018-03-28T00:18:38.751Z,0.00
2018-03-28T00:19:38.743Z,0.00
2018-03-28T00:20:38.739Z,0.00
2018-03-28T00:21:38.734Z,0.00
2018-03-28T00:22:38.730Z,0.00
2018-03-28T00:23:38.729Z,0.00
2018-03-28T00:24:38.720Z,0.00
2018-03-28T00:25:38.717Z,0.00
2018-03-28T00:26:38.711Z,0.00
2018-03-28T00:27:38.713Z,0.00
2018-03-28T00:28:38.702Z,0.00
2018-03-28T00:29:38.701Z,0.00
2018-03-28T00:30:38.692Z,0.00
2018-03-28T00:31:38.688Z,0.00
2018-03-28T00:32:38.684Z,0.00
2018-03-28T00:33:38.680Z,0.00
2018-03-28T00:34:38.683Z,0.00
2018-03-28T00:35:38.674Z,0.00
2018-03-28T00:36:38.670Z,0.00
2018-03-28T00:37:38.662Z,0.00
2018-03-28T00:38:38.685Z,0.00
2018-03-28T00:39:38.653Z,0.00
2018-03-28T00:40:38.649Z,0.00
2018-03-28T00:41:38.645Z,0.00
2018-03-28T00:42:38.640Z,0.00
2018-03-28T00:43:38.636Z,0.00
2018-03-28T00:44:38.633Z,0.00
2018-03-28T00:45:38.629Z,0.00
2018-03-28T00:46:38.625Z,0.00
2018-03-28T00:47:38.622Z,0.00
2018-03-28T00:48:38.631Z,0.00
2018-03-28T00:49:38.608Z,0.00
2018-03-28T00:50:38.603Z,0.00
2018-03-28T00:51:38.599Z,0.00
2018-03-28T00:52:38.595Z,0.00
2018-03-28T00:53:38.592Z,0.00
2018-03-28T00:54:38.586Z,0.00
2018-03-28T00:55:38.582Z,0.00
2018-03-28T00:56:38.580Z,0.00
2018-03-28T00:57:38.573Z,0.00
2018-03-28T00:58:38.570Z,0.00
2018-03-28T00:59:38.564Z,0.00
2018-03-28T01:00:38.559Z,0.00
2018-03-28T01:01:38.557Z,0.00
2018-03-28T01:02:38.559Z,0.00
2018-03-28T01:03:38.547Z,0.00
2018-03-28T01:04:38.541Z,0.00
2018-03-28T01:05:38.537Z,0.00
2018-03-28T01:06:38.561Z,0.00
2018-03-28T01:07:38.528Z,0.00
2018-03-28T01:08:38.523Z,0.00
2018-03-28T01:09:38.519Z,0.00
2018-03-28T01:10:38.515Z,0.00
2018-03-28T01:11:38.511Z,0.00
2018-03-28T01:12:38.506Z,0.00
2018-03-28T01:13:38.504Z,0.00
2018-03-28T01:14:38.498Z,0.00
2018-03-28T01:15:38.496Z,0.00
2018-03-28T01:16:38.488Z,0.00
2018-03-28T01:17:38.483Z,0.00
2018-03-28T01:18:38.487Z,0.00
2018-03-28T01:19:38.474Z,0.00
2018-03-28T01:20:38.469Z,0.00
2018-03-28T01:21:38.479Z,0.00
2018-03-28T01:22:38.463Z,0.00
2018-03-28T01:23:38.461Z,0.00
2018-03-28T01:24:38.455Z,0.00
2018-03-28T01:25:38.450Z,0.00
2018-03-28T01:26:38.450Z,0.00
2018-03-28T01:27:38.444Z,0.00
2018-03-28T01:28:38.434Z,0.00
2018-03-28T01:29:38.431Z,0.00
2018-03-28T01:30:38.430Z,0.00
2018-03-28T01:31:38.423Z,0.00
2018-03-28T01:32:38.418Z,0.00
2018-03-28T01:33:38.414Z,0.00
2018-03-28T01:34:38.412Z,0.00
2018-03-28T01:35:38.412Z,0.00
2018-03-28T01:36:38.403Z,0.00
2018-03-28T01:37:38.398Z,0.00
2018-03-28T01:38:38.396Z,0.00
2018-03-28T01:39:38.389Z,0.00
2018-03-28T01:40:38.394Z,0.00
2018-03-28T01:41:38.382Z,0.00
2018-03-28T01:42:38.375Z,0.00
2018-03-28T01:43:38.374Z,0.00
2018-03-28T01:44:38.366Z,0.00
2018-03-28T01:45:38.376Z,0.00
2018-03-28T01:46:38.360Z,0.00
2018-03-28T01:47:38.354Z,0.00
2018-03-28T01:48:38.348Z,0.00
2018-03-28T01:49:38.344Z,0.00
2018-03-28T01:50:38.340Z,0.00
2018-03-28T01:51:38.340Z,0.00
2018-03-28T01:52:38.333Z,0.00
2018-03-28T01:53:38.329Z,0.00
2018-03-28T01:54:38.325Z,0.00
2018-03-28T01:55:38.321Z,0.00
2018-03-28T01:56:38.316Z,0.00
2018-03-28T01:57:38.312Z,0.00
2018-03-28T01:58:38.309Z,0.00
2018-03-28T01:59:38.304Z,0.00
2018-03-28T02:00:38.297Z,0.00
2018-03-28T02:01:38.291Z,0.00
2018-03-28T02:02:38.290Z,0.00
2018-03-28T02:03:38.285Z,0.00
2018-03-28T02:04:38.281Z,0.00
2018-03-28T02:05:38.277Z,0.00
2018-03-28T02:06:38.271Z,0.00
2018-03-28T02:07:38.279Z,0.00
2018-03-28T02:08:38.264Z,0.00
2018-03-28T02:09:38.260Z,0.00
2018-03-28T02:10:38.258Z,0.00
2018-03-28T02:11:38.251Z,0.00
2018-03-28T02:12:38.247Z,0.00
2018-03-28T02:13:38.241Z,0.00
2018-03-28T02:14:38.239Z,0.00
2018-03-28T02:15:38.234Z,0.00
2018-03-28T02:16:38.227Z,0.00
2018-03-28T02:17:38.245Z,0.00
2018-03-28T02:18:38.222Z,0.00
2018-03-28T02:19:38.216Z,0.00
2018-03-28T02:20:38.210Z,0.00
2018-03-28T02:21:38.206Z,0.00
2018-03-28T02:22:38.225Z,0.00
2018-03-28T02:23:38.198Z,0.00
2018-03-28T02:24:38.196Z,0.00
2018-03-28T02:25:38.192Z,0.00
2018-03-28T02:26:38.187Z,0.00
2018-03-28T02:27:38.181Z,0.00
2018-03-28T02:28:38.176Z,0.00
2018-03-28T02:29:38.173Z,0.00
2018-03-28T02:30:38.169Z,0.00
2018-03-28T02:31:38.166Z,0.00
2018-03-28T02:32:38.160Z,0.00
2018-03-28T02:33:38.156Z,0.00
2018-03-28T02:34:38.173Z,0.00
2018-03-28T02:35:38.158Z,0.00
2018-03-28T02:36:38.143Z,0.00
2018-03-28T02:37:38.146Z,0.00
2018-03-28T02:38:38.138Z,0.00
2018-03-28T02:39:38.130Z,0.00
2018-03-28T02:40:38.127Z,0.00
2018-03-28T02:41:38.121Z,0.00
2018-03-28T02:42:38.119Z,0.00
2018-03-28T02:43:38.116Z,0.00
2018-03-28T02:44:38.109Z,0.00
2018-03-28T02:45:38.111Z,0.00
2018-03-28T02:46:38.100Z,0.00
2018-03-28T02:47:38.102Z,0.00
2018-03-28T02:48:38.091Z,0.00
2018-03-28T02:49:38.086Z,0.00
2018-03-28T02:50:38.084Z,0.00
2018-03-28T02:51:38.078Z,0.00
2018-03-28T02:52:38.073Z,0.00
2018-03-28T02:53:38.070Z,0.00
2018-03-28T02:54:38.063Z,0.00
2018-03-28T02:55:38.067Z,0.00
2018-03-28T02:56:38.062Z,0.00
2018-03-28T02:57:38.052Z,0.00
2018-03-28T02:58:38.047Z,0.00
2018-03-28T02:59:38.044Z,0.00
2018-03-28T03:00:38.037Z,0.00
2018-03-28T03:01:38.034Z,0.00
2018-03-28T03:02:38.039Z,0.00
2018-03-28T03:03:38.025Z,0.00
2018-03-28T03:04:38.027Z,0.00
2018-03-28T03:05:38.021Z,0.00
2018-03-28T03:06:38.016Z,0.00
2018-03-28T03:07:38.007Z,0.00
2018-03-28T03:08:38.003Z,0.00
2018-03-28T03:09:38.000Z,0.00
2018-03-28T03:10:37.996Z,0.00
2018-03-28T03:11:37.992Z,0.00
2018-03-28T03:12:37.982Z,0.00
2018-03-28T03:13:38.001Z,0.00
2018-03-28T03:14:37.972Z,0.00
2018-03-28T03:15:37.969Z,0.00
2018-03-28T03:16:37.967Z,0.00
2018-03-28T03:17:37.962Z,0.00
2018-03-28T03:18:37.958Z,0.00
2018-03-28T03:19:37.953Z,0.00
2018-03-28T03:20:37.948Z,0.00
2018-03-28T03:21:37.943Z,0.00
2018-03-28T03:22:37.947Z,0.00
2018-03-28T03:23:37.939Z,0.00
2018-03-28T03:24:37.956Z,0.00
2018-03-28T03:25:37.926Z,0.00
2018-03-28T03:26:37.921Z,0.00
2018-03-28T03:27:37.926Z,0.00
2018-03-28T03:28:37.914Z,0.00
2018-03-28T03:29:37.911Z,0.00
2018-03-28T03:30:37.908Z,0.00
2018-03-28T03:31:37.902Z,0.00
2018-03-28T03:32:37.896Z,0.00
2018-03-28T03:33:37.892Z,0.00
2018-03-28T03:34:37.892Z,0.00
2018-03-28T03:35:37.890Z,0.00
2018-03-28T03:36:37.879Z,0.00
2018-03-28T03:37:37.880Z,0.00
2018-03-28T03:38:37.884Z,0.00
2018-03-28T03:39:37.867Z,0.00
2018-03-28T03:40:37.863Z,0.00
2018-03-28T03:41:37.871Z,0.00
2018-03-28T03:42:37.854Z,0.00
2018-03-28T03:43:37.850Z,0.00
2018-03-28T03:44:37.846Z,0.00
2018-03-28T03:45:37.840Z,0.00
2018-03-28T03:46:37.839Z,0.00
2018-03-28T03:47:37.858Z,0.00
2018-03-28T03:48:37.827Z,0.00
2018-03-28T03:49:37.825Z,0.00
2018-03-28T03:50:37.820Z,0.00
2018-03-28T03:51:37.816Z,0.00
2018-03-28T03:52:37.853Z,0.00
2018-03-28T03:53:37.805Z,0.00
2018-03-28T03:54:37.798Z,0.00
2018-03-28T03:55:37.796Z,0.00
2018-03-28T03:56:37.800Z,0.00
2018-03-28T03:57:37.793Z,0.00
2018-03-28T03:58:38.481Z,0.00
2018-03-28T03:59:37.784Z,0.00
2018-03-28T04:00:37.776Z,0.00
2018-03-28T04:01:37.777Z,0.00
2018-03-28T04:02:37.767Z,0.00
2018-03-28T04:03:37.763Z,0.00
2018-03-28T04:04:37.815Z,0.00
2018-03-28T04:05:37.782Z,0.00
2018-03-28T04:06:37.749Z,0.00
2018-03-28T04:07:37.763Z,0.00
2018-03-28T04:08:37.748Z,0.00
2018-03-28T04:09:37.739Z,0.00
2018-03-28T04:10:37.732Z,0.00
2018-03-28T04:11:37.729Z,0.00
2018-03-28T04:12:37.726Z,0.00
2018-03-28T04:13:37.720Z,0.00
2018-03-28T04:14:37.715Z,0.00
2018-03-28T04:15:37.710Z,0.00
2018-03-28T04:16:37.705Z,0.00
2018-03-28T04:17:37.700Z,0.00
2018-03-28T04:18:37.699Z,0.00
2018-03-28T04:19:37.697Z,0.00
2018-03-28T04:20:37.695Z,0.00
2018-03-28T04:21:37.682Z,0.00
2018-03-28T04:22:37.678Z,0.00
2018-03-28T04:23:37.673Z,0.00
2018-03-28T04:24:37.668Z,0.00
2018-03-28T04:25:37.670Z,0.00
2018-03-28T04:26:37.666Z,0.00
2018-03-28T04:27:37.660Z,0.00
2018-03-28T04:28:37.661Z,0.00
2018-03-28T04:29:37.648Z,0.00
2018-03-28T04:30:37.648Z,0.00
2018-03-28T04:31:37.658Z,0.00
2018-03-28T04:32:37.636Z,0.00
2018-03-28T04:33:37.631Z,0.00
2018-03-28T04:34:37.633Z,0.00
2018-03-28T04:35:37.620Z,0.00
2018-03-28T04:36:37.655Z,0.00
2018-03-28T04:37:37.627Z,0.00
2018-03-28T04:38:37.613Z,0.00
2018-03-28T04:39:37.603Z,0.00
2018-03-28T04:40:37.599Z,0.00
2018-03-28T04:41:37.595Z,0.00
2018-03-28T04:42:37.610Z,0.00
2018-03-28T04:43:37.593Z,0.00
2018-03-28T04:44:37.581Z,0.00
2018-03-28T04:45:37.579Z,0.00
2018-03-28T04:46:37.576Z,0.00
2018-03-28T04:47:37.570Z,0.00
2018-03-28T04:48:37.566Z,0.00
2018-03-28T04:49:37.578Z,0.00
2018-03-28T04:50:37.558Z,0.00
2018-03-28T04:51:37.551Z,0.00
2018-03-28T04:52:37.546Z,0.00
2018-03-28T04:53:37.550Z,0.00
2018-03-28T04:54:37.538Z,0.00
2018-03-28T04:55:37.537Z,0.00
2018-03-28T04:56:37.530Z,0.00
2018-03-28T04:57:37.527Z,0.00
2018-03-28T04:58:37.522Z,0.00
2018-03-28T04:59:37.527Z,0.00
2018-03-28T05:00:37.518Z,0.00
2018-03-28T05:01:37.509Z,0.00
2018-03-28T05:02:37.505Z,0.00
2018-03-28T05:03:37.505Z,0.00
2018-03-28T05:04:37.497Z,0.00
2018-03-28T05:05:37.496Z,0.00
2018-03-28T05:06:37.492Z,0.00
2018-03-28T05:07:37.481Z,0.00
2018-03-28T05:08:37.494Z,0.00
2018-03-28T05:09:37.475Z,0.00
2018-03-28T05:10:37.472Z,0.00
2018-03-28T05:11:37.465Z,0.00
2018-03-28T05:12:37.464Z,0.00
2018-03-28T05:13:37.460Z,0.00
2018-03-28T05:14:37.458Z,0.00
2018-03-28T05:15:37.461Z,0.00
2018-03-28T05:16:37.443Z,0.00
2018-03-28T05:17:37.439Z,0.00
2018-03-28T05:18:37.438Z,0.00
2018-03-28T05:19:37.435Z,0.00
2018-03-28T05:20:37.439Z,0.00
2018-03-28T05:21:37.428Z,0.00
2018-03-28T05:22:37.455Z,0.00
2018-03-28T05:23:37.415Z,0.00
2018-03-28T05:24:37.419Z,0.00
2018-03-28T05:25:37.404Z,0.00
2018-03-28T05:26:37.402Z,0.00
2018-03-28T05:27:37.400Z,0.00
2018-03-28T05:28:37.391Z,0.00
2018-03-28T05:29:37.385Z,0.00
2018-03-28T05:30:37.383Z,0.00
2018-03-28T05:31:37.382Z,0.00
2018-03-28T05:32:37.375Z,0.00
2018-03-28T05:33:37.369Z,0.00
2018-03-28T05:34:37.362Z,5.63
2018-03-28T05:35:37.361Z,5.63
2018-03-28T05:36:37.359Z,5.63
2018-03-28T05:37:37.381Z,5.63
2018-03-28T05:38:37.348Z,5.63
2018-03-28T05:39:37.341Z,5.63
2018-03-28T05:40:37.336Z,5.63
2018-03-28T05:41:37.333Z,5.63
2018-03-28T05:42:37.334Z,5.63
2018-03-28T05:43:37.327Z,5.63
2018-03-28T05:44:37.325Z,5.63
2018-03-28T05:45:38.340Z,11.25
2018-03-28T05:46:37.311Z,11.25
2018-03-28T05:47:37.305Z,11.25
2018-03-28T05:48:37.300Z,11.25
2018-03-28T05:49:37.298Z,16.88
2018-03-28T05:50:37.292Z,16.88
2018-03-28T05:51:37.342Z,16.88
2018-03-28T05:52:37.285Z,11.25
2018-03-28T05:53:37.280Z,11.25
2018-03-28T05:54:37.273Z,11.25
2018-03-28T05:55:37.270Z,11.25
2018-03-28T05:56:37.272Z,11.25
2018-03-28T05:57:37.262Z,11.25
2018-03-28T05:58:37.256Z,11.25
2018-03-28T05:59:37.258Z,11.25
2018-03-28T06:00:37.253Z,11.25
2018-03-28T06:01:37.250Z,11.25
2018-03-28T06:02:37.253Z,11.25
2018-03-28T06:03:37.523Z,11.25
2018-03-28T06:04:38.560Z,11.25
2018-03-28T06:05:37.427Z,11.25
2018-03-28T06:06:37.235Z,11.25
2018-03-28T06:07:37.456Z,11.25
2018-03-28T06:08:37.399Z,11.25
2018-03-28T06:09:37.269Z,11.25
2018-03-28T06:10:38.100Z,11.25
2018-03-28T06:11:38.991Z,11.25
2018-03-28T06:12:37.201Z,11.25
2018-03-28T06:13:37.334Z,11.25
2018-03-28T06:14:37.994Z,11.25
2018-03-28T06:15:37.188Z,11.25
2018-03-28T06:16:37.183Z,11.25
2018-03-28T06:17:37.999Z,11.25
2018-03-28T06:18:37.179Z,11.25
2018-03-28T06:19:37.172Z,11.25
2018-03-28T06:20:37.168Z,11.25
2018-03-28T06:21:37.167Z,16.88
2018-03-28T06:22:37.159Z,16.88
2018-03-28T06:23:37.187Z,16.88
2018-03-28T06:24:37.155Z,16.88
2018-03-28T06:25:37.151Z,16.88
2018-03-28T06:26:37.156Z,16.88
2018-03-28T06:27:37.333Z,16.88
2018-03-28T06:28:37.144Z,16.88
2018-03-28T06:29:37.137Z,16.88
2018-03-28T06:30:37.143Z,16.88
2018-03-28T06:31:37.134Z,22.50
2018-03-28T06:32:37.122Z,22.50
2018-03-28T06:33:37.408Z,22.50
2018-03-28T06:34:37.194Z,28.13
2018-03-28T06:35:37.147Z,28.13
2018-03-28T06:36:37.111Z,28.13
2018-03-28T06:37:37.103Z,33.75
2018-03-28T06:38:37.097Z,33.75
2018-03-28T06:39:37.094Z,33.75
2018-03-28T06:40:37.097Z,33.75
2018-03-28T06:41:37.092Z,33.75
2018-03-28T06:42:37.086Z,33.75
2018-03-28T06:43:37.427Z,33.75
2018-03-28T06:44:37.098Z,28.13
2018-03-28T06:45:37.076Z,33.75
2018-03-28T06:46:41.330Z,39.38
2018-03-28T06:47:44.413Z,39.38
2018-03-28T06:48:37.841Z,45.00
2018-03-28T06:49:38.080Z,45.00
2018-03-28T06:50:37.052Z,50.63
2018-03-28T06:51:37.050Z,56.25
2018-03-28T06:52:37.047Z,61.88
2018-03-28T06:53:37.063Z,61.88
2018-03-28T06:54:37.100Z,61.88
2018-03-28T06:55:37.051Z,67.50
2018-03-28T06:56:37.036Z,67.50
2018-03-28T06:57:37.035Z,67.50
2018-03-28T06:58:37.032Z,67.50
2018-03-28T06:59:37.039Z,73.13
2018-03-28T07:00:37.021Z,73.13
2018-03-28T07:01:37.014Z,78.75
2018-03-28T07:02:38.014Z,84.38
2018-03-28T07:03:37.042Z,90.00
2018-03-28T07:04:37.005Z,90.00
2018-03-28T07:05:37.006Z,90.00
2018-03-28T07:06:36.992Z,95.63
2018-03-28T07:07:36.993Z,90.00
2018-03-28T07:08:37.057Z,90.00
2018-03-28T07:09:36.983Z,84.38
2018-03-28T07:10:36.982Z,78.75
2018-03-28T07:11:36.976Z,78.75
2018-03-28T07:12:36.974Z,78.75
2018-03-28T07:13:36.976Z,84.38
2018-03-28T07:14:36.967Z,90.00
2018-03-28T07:15:36.965Z,90.00
2018-03-28T07:16:36.960Z,84.38
2018-03-28T07:17:36.957Z,90.00
2018-03-28T07:18:36.966Z,95.63
2018-03-28T07:19:36.952Z,95.63
2018-03-28T07:20:37.004Z,90.00
2018-03-28T07:21:36.958Z,90.00
2018-03-28T07:22:36.944Z,95.63
2018-03-28T07:23:36.952Z,95.63
2018-03-28T07:24:36.937Z,90.00
2018-03-28T07:25:36.933Z,95.63
2018-03-28T07:26:36.935Z,95.63
2018-03-28T07:27:36.926Z,90.00
2018-03-28T07:28:36.941Z,90.00
2018-03-28T07:29:36.925Z,90.00
2018-03-28T07:30:36.917Z,95.63
2018-03-28T07:31:36.915Z,95.63
2018-03-28T07:32:36.915Z,101.25
2018-03-28T07:33:36.913Z,95.63
2018-03-28T07:34:36.906Z,84.38
2018-03-28T07:35:36.912Z,73.13
2018-03-28T07:36:36.924Z,67.50
2018-03-28T07:37:36.899Z,61.88
2018-03-28T07:38:36.895Z,56.25
2018-03-28T07:39:36.893Z,50.63
2018-03-28T07:40:36.902Z,45.00
2018-03-28T07:41:36.887Z,39.38
2018-03-28T07:42:36.885Z,39.38
2018-03-28T07:43:36.882Z,39.38
2018-03-28T07:44:36.994Z,39.38
2018-03-28T07:45:36.906Z,33.75
2018-03-28T07:46:36.877Z,33.75
2018-03-28T07:47:36.883Z,28.13
2018-03-28T07:48:36.871Z,28.13
2018-03-28T07:49:36.872Z,22.50
2018-03-28T07:50:36.872Z,22.50
2018-03-28T07:51:36.934Z,22.50
2018-03-28T07:52:36.859Z,22.50
2018-03-28T07:53:36.854Z,22.50
2018-03-28T07:54:36.857Z,22.50
2018-03-28T07:55:36.847Z,22.50
2018-03-28T07:56:36.848Z,22.50
2018-03-28T07:57:36.872Z,28.13
2018-03-28T07:58:36.924Z,28.13
2018-03-28T07:59:36.834Z,33.75
2018-03-28T08:00:36.834Z,39.38
2018-03-28T08:01:36.829Z,39.38
2018-03-28T08:02:36.837Z,45.00
2018-03-28T08:03:36.829Z,50.63
2018-03-28T08:04:36.853Z,56.25
2018-03-28T08:05:36.822Z,61.88
2018-03-28T08:06:36.815Z,61.88
2018-03-28T08:07:36.815Z,67.50
2018-03-28T08:08:36.806Z,73.13
2018-03-28T08:09:36.820Z,73.13
2018-03-28T08:10:36.813Z,67.50
2018-03-28T08:11:36.807Z,67.50
2018-03-28T08:12:36.802Z,67.50
2018-03-28T08:13:36.795Z,73.13
2018-03-28T08:14:36.793Z,78.75
2018-03-28T08:15:36.790Z,95.63
2018-03-28T08:16:36.786Z,106.88
2018-03-28T08:17:36.840Z,135.00
2018-03-28T08:18:36.941Z,146.25
2018-03-28T08:19:36.776Z,157.50
2018-03-28T08:20:36.776Z,163.13
2018-03-28T08:21:36.770Z,157.50
2018-03-28T08:22:36.767Z,168.75
2018-03-28T08:23:36.765Z,191.25
2018-03-28T08:24:36.761Z,163.13
2018-03-28T08:25:36.761Z,163.13
2018-03-28T08:26:36.761Z,191.25
2018-03-28T08:27:36.756Z,331.88
2018-03-28T08:28:36.749Z,208.13
2018-03-28T08:29:36.752Z,292.50
2018-03-28T08:30:36.905Z,371.25
2018-03-28T08:31:36.747Z,247.50
2018-03-28T08:32:36.743Z,151.88
2018-03-28T08:33:36.757Z,123.75
2018-03-28T08:34:36.740Z,118.13
2018-03-28T08:35:36.740Z,106.88
2018-03-28T08:36:36.740Z,90.00
2018-03-28T08:37:36.737Z,84.38
2018-03-28T08:38:36.738Z,78.75
2018-03-28T08:39:36.738Z,73.13
2018-03-28T08:40:36.735Z,73.13
2018-03-28T08:41:36.737Z,67.50
2018-03-28T08:42:36.732Z,73.13
2018-03-28T08:43:36.743Z,78.75
2018-03-28T08:44:36.729Z,84.38
2018-03-28T08:45:36.730Z,90.00
2018-03-28T08:46:36.731Z,101.25
2018-03-28T08:47:36.728Z,123.75
2018-03-28T08:48:36.728Z,123.75
2018-03-28T08:49:36.754Z,106.88
2018-03-28T08:50:36.749Z,106.88
2018-03-28T08:51:37.004Z,84.38
2018-03-28T08:52:36.761Z,61.88
2018-03-28T08:53:36.718Z,50.63
2018-03-28T08:54:36.715Z,50.63
2018-03-28T08:55:36.711Z,50.63
2018-03-28T08:56:36.719Z,50.63
2018-03-28T08:57:36.740Z,61.88
2018-03-28T08:58:36.710Z,73.13
2018-03-28T08:59:36.708Z,90.00
2018-03-28T09:00:36.708Z,95.63
2018-03-28T09:01:36.721Z,78.75
2018-03-28T09:02:36.711Z,67.50
2018-03-28T09:03:36.703Z,61.88
2018-03-28T09:04:36.696Z,56.25
2018-03-28T09:05:36.700Z,56.25
2018-03-28T09:06:36.693Z,56.25
2018-03-28T09:07:36.696Z,61.88
2018-03-28T09:08:36.693Z,67.50
2018-03-28T09:09:36.687Z,78.75
2018-03-28T09:10:36.684Z,90.00
2018-03-28T09:11:36.682Z,90.00
2018-03-28T09:12:36.699Z,101.25
2018-03-28T09:13:36.676Z,101.25
2018-03-28T09:14:36.678Z,106.88
2018-03-28T09:15:36.677Z,106.88
2018-03-28T09:16:36.673Z,95.63
2018-03-28T09:17:36.717Z,78.75
2018-03-28T09:18:36.668Z,61.88
2018-03-28T09:19:36.675Z,61.88
2018-03-28T09:20:36.662Z,61.88
2018-03-28T09:21:36.667Z,67.50
2018-03-28T09:22:36.798Z,73.13
2018-03-28T09:23:36.726Z,78.75
2018-03-28T09:24:36.715Z,95.63
2018-03-28T09:25:36.683Z,219.38
2018-03-28T09:26:37.579Z,264.38
2018-03-28T09:27:37.712Z,309.38
2018-03-28T09:28:36.758Z,590.63
2018-03-28T09:29:36.751Z,916.88
2018-03-28T09:30:36.647Z,843.75
2018-03-28T09:31:36.646Z,731.25
2018-03-28T09:32:36.642Z,534.38
2018-03-28T09:33:36.643Z,506.25
2018-03-28T09:34:36.642Z,556.88
2018-03-28T09:35:36.641Z,466.88
2018-03-28T09:36:36.648Z,461.25
2018-03-28T09:37:36.651Z,483.75
2018-03-28T09:38:36.645Z,500.63
2018-03-28T09:39:36.648Z,500.63
2018-03-28T09:40:36.649Z,500.63
2018-03-28T09:41:36.677Z,455.63
2018-03-28T09:42:36.660Z,410.63
2018-03-28T09:43:37.072Z,382.50
2018-03-28T09:44:36.662Z,360.00
2018-03-28T09:45:36.666Z,343.13
2018-03-28T09:46:36.668Z,343.13
2018-03-28T09:47:36.677Z,315.00
2018-03-28T09:48:36.756Z,320.63
2018-03-28T09:49:37.615Z,320.63
2018-03-28T09:50:36.744Z,303.75
2018-03-28T09:51:36.757Z,292.50
2018-03-28T09:52:36.706Z,292.50
2018-03-28T09:53:36.712Z,264.38
2018-03-28T09:54:36.711Z,258.75
2018-03-28T09:55:36.762Z,241.88
2018-03-28T09:56:36.817Z,264.38
2018-03-28T09:57:36.724Z,247.50
2018-03-28T09:58:36.752Z,247.50
2018-03-28T09:59:36.751Z,241.88
2018-03-28T10:00:36.762Z,247.50
2018-03-28T10:01:36.740Z,241.88
2018-03-28T10:02:36.726Z,230.63
2018-03-28T10:03:36.826Z,230.63
2018-03-28T10:04:36.746Z,236.25
2018-03-28T10:05:36.766Z,247.50
2018-03-28T10:06:36.890Z,247.50
2018-03-28T10:07:36.743Z,270.00
2018-03-28T10:08:36.885Z,281.25
2018-03-28T10:09:36.780Z,281.25
2018-03-28T10:10:36.756Z,286.88
2018-03-28T10:11:36.747Z,292.50
2018-03-28T10:12:36.776Z,292.50
2018-03-28T10:13:36.744Z,286.88
2018-03-28T10:14:36.756Z,292.50
2018-03-28T10:15:36.838Z,286.88
2018-03-28T10:16:36.782Z,281.25
2018-03-28T10:17:36.786Z,281.25
2018-03-28T10:18:36.777Z,281.25
2018-03-28T10:19:36.772Z,286.88
2018-03-28T10:20:36.847Z,281.25
2018-03-28T10:21:36.878Z,270.00
2018-03-28T10:22:36.792Z,270.00
2018-03-28T10:23:36.783Z,264.38
2018-03-28T10:24:36.805Z,264.38
2018-03-28T10:25:36.852Z,258.75
2018-03-28T10:26:36.777Z,258.75
2018-03-28T10:27:37.079Z,264.38
2018-03-28T10:28:36.811Z,264.38
2018-03-28T10:29:36.828Z,264.38
2018-03-28T10:30:36.908Z,258.75
2018-03-28T10:31:36.804Z,247.50
2018-03-28T10:32:36.793Z,253.13
2018-03-28T10:33:36.810Z,247.50
2018-03-28T10:34:36.811Z,253.13
2018-03-28T10:35:36.868Z,253.13
2018-03-28T10:36:36.805Z,264.38
2018-03-28T10:37:36.876Z,281.25
2018-03-28T10:38:36.796Z,270.00
2018-03-28T10:39:36.959Z,275.63
2018-03-28T10:40:36.818Z,253.13
2018-03-28T10:41:36.880Z,230.63
2018-03-28T10:42:36.859Z,225.00
2018-03-28T10:43:36.841Z,196.88
2018-03-28T10:44:36.885Z,191.25
2018-03-28T10:45:36.835Z,191.25
2018-03-28T10:46:36.828Z,208.13
2018-03-28T10:47:36.899Z,196.88
2018-03-28T10:48:36.887Z,180.00
2018-03-28T10:49:36.863Z,157.50
2018-03-28T10:50:36.905Z,146.25
2018-03-28T10:51:36.856Z,129.38
2018-03-28T10:52:36.891Z,112.50
2018-03-28T10:53:36.990Z,90.00
2018-03-28T10:54:36.828Z,84.38
2018-03-28T10:55:37.533Z,90.00
2018-03-28T10:56:36.841Z,78.75
2018-03-28T10:57:36.947Z,73.13
2018-03-28T10:58:36.934Z,73.13
2018-03-28T10:59:36.884Z,67.50
2018-03-28T11:00:37.567Z,67.50
2018-03-28T11:01:36.863Z,67.50
2018-03-28T11:02:36.906Z,67.50
2018-03-28T11:03:37.578Z,73.13
2018-03-28T11:04:36.875Z,73.13
2018-03-28T11:05:36.898Z,73.13
2018-03-28T11:06:36.860Z,67.50
2018-03-28T11:07:36.873Z,67.50
2018-03-28T11:08:36.853Z,61.88
2018-03-28T11:09:36.851Z,61.88
2018-03-28T11:10:36.862Z,56.25
2018-03-28T11:11:36.866Z,50.63
2018-03-28T11:12:36.862Z,45.00
2018-03-28T11:13:36.852Z,45.00
2018-03-28T11:14:36.856Z,45.00
2018-03-28T11:15:36.855Z,45.00
2018-03-28T11:16:36.869Z,45.00
2018-03-28T11:17:36.860Z,45.00
2018-03-28T11:18:36.853Z,45.00
2018-03-28T11:19:36.865Z,45.00
2018-03-28T11:20:36.874Z,50.63
2018-03-28T11:21:36.909Z,56.25
2018-03-28T11:22:36.899Z,61.88
2018-03-28T11:23:36.873Z,67.50
2018-03-28T11:24:36.912Z,73.13
2018-03-28T11:25:36.896Z,73.13
2018-03-28T11:26:36.873Z,73.13
2018-03-28T11:27:36.913Z,67.50
2018-03-28T11:28:36.849Z,61.88
2018-03-28T11:29:36.880Z,61.88
2018-03-28T11:30:36.865Z,56.25
2018-03-28T11:31:36.849Z,56.25
2018-03-28T11:32:36.939Z,56.25
2018-03-28T11:33:36.869Z,61.88
2018-03-28T11:34:36.879Z,61.88
2018-03-28T11:35:36.846Z,61.88
2018-03-28T11:36:36.885Z,61.88
2018-03-28T11:37:36.904Z,61.88
2018-03-28T11:38:36.885Z,61.88
2018-03-28T11:39:36.853Z,61.88
2018-03-28T11:40:36.854Z,61.88
2018-03-28T11:41:37.551Z,56.25
2018-03-28T11:42:36.945Z,50.63
2018-03-28T11:43:36.870Z,50.63
2018-03-28T11:44:36.841Z,50.63
2018-03-28T11:45:36.990Z,45.00
2018-03-28T11:46:36.845Z,45.00
2018-03-28T11:47:36.867Z,45.00
2018-03-28T11:48:36.957Z,45.00
2018-03-28T11:49:36.846Z,45.00
2018-03-28T11:50:36.861Z,45.00
2018-03-28T11:51:36.870Z,39.38
2018-03-28T11:52:37.043Z,39.38
2018-03-28T11:53:36.840Z,33.75
2018-03-28T11:54:36.873Z,28.13
2018-03-28T11:55:37.606Z,22.50
2018-03-28T11:56:36.964Z,28.13
2018-03-28T11:57:37.543Z,28.13
2018-03-28T11:58:36.845Z,28.13
2018-03-28T11:59:36.933Z,28.13
2018-03-28T12:00:36.860Z,28.13
2018-03-28T12:01:36.843Z,28.13
2018-03-28T12:02:36.829Z,28.13
2018-03-28T12:03:36.829Z,28.13
2018-03-28T12:04:36.861Z,28.13
2018-03-28T12:05:36.825Z,28.13
2018-03-28T12:06:36.825Z,28.13
2018-03-28T12:07:36.834Z,28.13
2018-03-28T12:08:36.828Z,28.13
2018-03-28T12:09:36.823Z,28.13
2018-03-28T12:10:36.824Z,28.13
2018-03-28T12:11:36.824Z,33.75
2018-03-28T12:12:36.819Z,28.13
2018-03-28T12:13:36.923Z,28.13
2018-03-28T12:14:36.820Z,22.50
2018-03-28T12:15:36.822Z,22.50
2018-03-28T12:16:36.819Z,22.50
2018-03-28T12:17:36.830Z,22.50
2018-03-28T12:18:36.818Z,22.50
2018-03-28T12:19:36.818Z,16.88
2018-03-28T12:20:36.825Z,16.88
2018-03-28T12:21:36.814Z,16.88
2018-03-28T12:22:36.816Z,16.88
2018-03-28T12:23:36.817Z,16.88
2018-03-28T12:24:36.812Z,16.88
2018-03-28T12:25:36.812Z,16.88
2018-03-28T12:26:36.812Z,16.88
2018-03-28T12:27:36.810Z,16.88
2018-03-28T12:28:36.896Z,16.88
2018-03-28T12:29:36.817Z,16.88
2018-03-28T12:30:36.808Z,16.88
2018-03-28T12:31:36.810Z,16.88
2018-03-28T12:32:36.840Z,16.88
2018-03-28T12:33:36.804Z,16.88
2018-03-28T12:34:36.808Z,16.88
2018-03-28T12:35:36.840Z,16.88
2018-03-28T12:36:36.802Z,16.88
2018-03-28T12:37:36.800Z,11.25
2018-03-28T12:38:36.798Z,11.25
2018-03-28T12:39:36.801Z,11.25
2018-03-28T12:40:36.795Z,11.25
2018-03-28T12:41:36.800Z,11.25
2018-03-28T12:42:36.795Z,11.25
2018-03-28T12:43:36.798Z,5.63
2018-03-28T12:44:36.798Z,5.63
2018-03-28T12:45:36.793Z,5.63
2018-03-28T12:46:36.799Z,5.63
2018-03-28T12:47:36.790Z,5.63
2018-03-28T12:48:36.795Z,11.25
2018-03-28T12:49:36.819Z,11.25
2018-03-28T12:50:37.305Z,11.25
2018-03-28T12:51:37.924Z,11.25
2018-03-28T12:52:36.840Z,16.88
2018-03-28T12:53:36.796Z,22.50
2018-03-28T12:54:36.857Z,22.50
2018-03-28T12:55:36.884Z,22.50
2018-03-28T12:56:36.828Z,22.50
2018-03-28T12:57:37.605Z,22.50
2018-03-28T12:58:36.875Z,22.50
2018-03-28T12:59:37.173Z,22.50
2018-03-28T13:00:36.870Z,22.50